Hlavní strana
METAR-TAF:

METAR-TAF

Letiště :

Mitiga International Airport

Tripolis, Libye

zeměpisná šířka: 32-54N, zeměpisná délka: 13-17E, výška: 11 m

METAR: chybějící

Čas: 17:29 (15:29 UTC)

Předpověď počasí

Zpráva byla vytvořena před 22 hodinami a 29 minutami, v 17:00 UTC
Předpověď platná od 23 v 18 UTC do 24 v 18 UTC
vítr z různých směrů 2 kt
Viditelnost: 8000 m
Změna
od 23 v 22 UTC do 23 v 24 UTC
Severoseverovýchodní vítr 10 kt
Změna
od 24 v 04 UTC do 24 v 06 UTC
Východní vítr 12 kt

TAF: HLLM 231700Z 2318/2418 VRB02KT 8000 NSC BECMG 2322/2324 02010KT BECMG 2404/2406 09012KT

Stav a předpovědi počasí z více než 4 000 letišť (zprávy METAR a TAF).

Červené a žluté tečky na mapě představují dostupné meteorologické stanice.

Když kurzor umístíte na tečku, zobrazí se název stanice.

Pak kliknutím zobrazíte stav a předpověď počasí.

Chcete-li změnit mapu, kliknutím na zelené tlačítko se znaménkem +mapu přiblížíte, kliknutím na zelené tlačítko se znaménkem – mapu oddálíte a kliknutím na zelené šipky přejdete na sousední mapy.


METAR-TAF: